createdAt,value
2023-04-29T00:00:13.705Z,99824.78
2023-04-29T00:01:04.168Z,99826.81
2023-04-29T00:01:44.687Z,99808.28
2023-04-29T00:02:25.871Z,99816.25
2023-04-29T00:03:06.881Z,99806.94
2023-04-29T00:03:47.990Z,99820.34
2023-04-29T00:04:28.840Z,99829.91
2023-04-29T00:05:09.068Z,99825.63
2023-04-29T00:05:49.876Z,99806.94
2023-04-29T00:06:30.467Z,99818.81
2023-04-29T00:07:10.689Z,99800.31
2023-04-29T00:07:51.831Z,99813.56
2023-04-29T00:08:31.674Z,99809.28
2023-04-29T00:09:11.764Z,99826.13
2023-04-29T00:09:51.789Z,99799.47
2023-04-29T00:10:31.773Z,99807.44
2023-04-29T00:11:12.758Z,99822.72
2023-04-29T00:11:53.747Z,99796.56
2023-04-29T00:12:34.662Z,99800.59
2023-04-29T00:13:14.751Z,99815.09
2023-04-29T00:13:54.661Z,99815.09
2023-04-29T00:14:34.764Z,99814.72
2023-04-29T00:15:15.655Z,99817.63
2023-04-29T00:15:56.823Z,99811.34
2023-04-29T00:16:36.768Z,99810.78
2023-04-29T00:17:17.358Z,99800.59
2023-04-29T00:17:57.703Z,99794.31
2023-04-29T00:18:37.969Z,99798.59
2023-04-29T00:19:17.666Z,99804.72
2023-04-29T00:19:58.782Z,99807.75
2023-04-29T00:20:39.671Z,99796.38
2023-04-29T00:21:20.824Z,99817.59
2023-04-29T00:22:01.685Z,99792.81
2023-04-29T00:22:41.737Z,99813.88
2023-04-29T00:23:21.657Z,99806.41
2023-04-29T00:24:02.757Z,99789.25
2023-04-29T00:24:42.648Z,99803.19
2023-04-29T00:25:23.013Z,99810.84
2023-04-29T00:26:03.665Z,99793.81
2023-04-29T00:26:43.752Z,99797.56
2023-04-29T00:27:24.672Z,99794.84
2023-04-29T00:28:05.755Z,99799.97
2023-04-29T00:28:45.678Z,99808.47
2023-04-29T00:29:25.844Z,99804.19
2023-04-29T00:30:05.643Z,99804.19
2023-04-29T00:30:47.111Z,99793.50
2023-04-29T00:31:28.802Z,99792.13
2023-04-29T00:32:09.766Z,99773.44
2023-04-29T00:32:50.721Z,99795.88
2023-04-29T00:33:30.980Z,99792.47
2023-04-29T00:34:10.643Z,99802.00
2023-04-29T00:34:51.568Z,99788.72
2023-04-29T00:35:31.660Z,99786.50
2023-04-29T00:36:12.826Z,99803.69
2023-04-29T00:36:52.646Z,99787.22
2023-04-29T00:37:32.951Z,99787.34
2023-04-29T00:38:15.662Z,99800.97
2023-04-29T00:38:55.731Z,99787.34
2023-04-29T00:39:35.946Z,99774.97
2023-04-29T00:40:17.426Z,99796.91
2023-04-29T00:40:58.676Z,99794.66
2023-04-29T00:41:39.812Z,99794.53
2023-04-29T00:42:19.643Z,99796.91
2023-04-29T00:42:59.706Z,99791.28
2023-04-29T00:43:39.674Z,99794.84
2023-04-29T00:44:20.798Z,99793.84
2023-04-29T00:45:00.623Z,99795.19
2023-04-29T00:45:40.752Z,99790.81
2023-04-29T00:46:20.713Z,99781.94
2023-04-29T00:47:00.908Z,99792.47
2023-04-29T00:47:48.694Z,99757.81
2023-04-29T00:48:29.727Z,99795.22
2023-04-29T00:49:10.665Z,99776.00
2023-04-29T00:49:51.018Z,99794.88
2023-04-29T00:50:32.687Z,99783.47
2023-04-29T00:51:13.684Z,99775.16
2023-04-29T00:51:54.689Z,99786.72
2023-04-29T00:52:37.793Z,99789.44
2023-04-29T00:53:19.625Z,99792.16
2023-04-29T00:54:00.877Z,99785.88
2023-04-29T00:54:41.707Z,99786.03
2023-04-29T00:55:22.786Z,99769.38
2023-04-29T00:56:03.006Z,99779.59
2023-04-29T00:56:44.756Z,99785.00
2023-04-29T00:57:26.626Z,99776.69
2023-04-29T00:58:07.753Z,99793.16
2023-04-29T00:58:52.632Z,99775.50
2023-04-29T00:59:34.526Z,99781.28
2023-04-29T01:00:16.645Z,99774.81
2023-04-29T01:00:57.721Z,99783.31
2023-04-29T01:01:37.660Z,99784.00
2023-04-29T01:02:17.817Z,99788.75
2023-04-29T01:02:57.680Z,99786.72
2023-04-29T01:03:38.827Z,99770.56
2023-04-29T01:04:18.689Z,99789.75
2023-04-29T01:04:59.752Z,99784.31
2023-04-29T01:05:40.705Z,99788.41
2023-04-29T01:06:49.565Z,99772.28
2023-04-29T01:07:59.643Z,99767.81
2023-04-29T01:09:13.255Z,99791.91
2023-04-29T01:10:24.591Z,99775.19
2023-04-29T01:11:14.639Z,99768.56
2023-04-29T01:12:32.621Z,99796.44
2023-04-29T01:14:12.629Z,99767.56
2023-04-29T01:15:19.612Z,99794.81
2023-04-29T01:16:19.657Z,99787.63
2023-04-29T01:17:19.634Z,99794.09
2023-04-29T01:18:22.616Z,99794.63
2023-04-29T01:19:29.633Z,99802.13
2023-04-29T01:20:24.607Z,99785.28
2023-04-29T01:21:18.626Z,99774.59
2023-04-29T01:21:59.627Z,99786.50
2023-04-29T01:22:39.706Z,99778.00
2023-04-29T01:23:21.609Z,99782.25
2023-04-29T01:24:01.930Z,99789.22
2023-04-29T01:24:41.612Z,99782.94
2023-04-29T01:25:21.732Z,99789.75
2023-04-29T01:26:02.600Z,99771.38
2023-04-29T01:26:42.630Z,99771.88
2023-04-29T01:27:48.730Z,99780.91
2023-04-29T01:28:58.609Z,99779.88
2023-04-29T01:30:14.732Z,99779.91
2023-04-29T01:31:15.655Z,99783.63
2023-04-29T01:32:06.706Z,99780.75
2023-04-29T01:33:27.611Z,99769.38
2023-04-29T01:34:57.613Z,99785.34
2023-04-29T01:36:12.584Z,99778.19
2023-04-29T01:37:44.651Z,99780.75
2023-04-29T01:39:08.609Z,99779.41
2023-04-29T01:40:14.627Z,99773.44
2023-04-29T01:41:48.613Z,99776.16
2023-04-29T01:42:50.676Z,99762.38
2023-04-29T01:43:46.560Z,99772.94
2023-04-29T01:44:43.670Z,99763.75
2023-04-29T01:45:37.630Z,99774.44
2023-04-29T01:46:31.650Z,99767.19
2023-04-29T01:47:27.645Z,99760.34
2023-04-29T01:48:15.610Z,99758.81
2023-04-29T01:48:49.658Z,99774.13
2023-04-29T01:49:37.613Z,99769.38
2023-04-29T01:50:11.809Z,99744.25
2023-04-29T01:50:58.585Z,99774.81
2023-04-29T01:51:34.065Z,99760.88
2023-04-29T01:52:20.592Z,99749.50
2023-04-29T01:52:54.688Z,99757.81
2023-04-29T01:53:35.609Z,99762.25
2023-04-29T01:54:15.686Z,99757.50
2023-04-29T01:54:55.568Z,99760.53
2023-04-29T01:55:35.684Z,99748.16
2023-04-29T01:56:15.582Z,99768.69
2023-04-29T01:56:55.687Z,99767.00
2023-04-29T01:57:36.580Z,99763.94
2023-04-29T01:58:19.747Z,99753.75
2023-04-29T01:58:59.636Z,99748.97
2023-04-29T01:59:39.702Z,99763.09
2023-04-29T02:00:20.568Z,99738.97
2023-04-29T02:01:01.791Z,99750.19
2023-04-29T02:01:42.587Z,99765.47
2023-04-29T02:02:23.639Z,99751.88
2023-04-29T02:03:04.629Z,99749.31
2023-04-29T02:03:44.819Z,99745.25
2023-04-29T02:04:24.626Z,99760.72
2023-04-29T02:05:04.724Z,99741.19
2023-04-29T02:05:45.566Z,99759.69
2023-04-29T02:06:26.362Z,99735.06
2023-04-29T02:07:06.574Z,99763.09
2023-04-29T02:07:47.807Z,99755.97
2023-04-29T02:08:27.592Z,99754.44
2023-04-29T02:09:07.739Z,99745.59
2023-04-29T02:09:48.563Z,99753.41
2023-04-29T02:10:29.152Z,99731.50
2023-04-29T02:11:09.558Z,99745.75
2023-04-29T02:11:49.647Z,99754.78
2023-04-29T02:12:29.565Z,99751.03
2023-04-29T02:13:12.092Z,99753.44
2023-04-29T02:13:52.544Z,99755.78
2023-04-29T02:14:35.602Z,99731.50
2023-04-29T02:15:18.563Z,99733.03
2023-04-29T02:15:58.660Z,99764.63
2023-04-29T02:16:38.709Z,99758.84
2023-04-29T02:17:18.653Z,99744.91
2023-04-29T02:17:59.595Z,99755.59
2023-04-29T02:18:40.579Z,99746.97
2023-04-29T02:19:20.555Z,99734.75
2023-04-29T02:20:00.685Z,99752.22
2023-04-29T02:20:40.570Z,99755.78
2023-04-29T02:21:20.658Z,99759.19
2023-04-29T02:22:01.564Z,99750.38
2023-04-29T02:22:43.961Z,99756.81
2023-04-29T02:23:24.560Z,99755.78
2023-04-29T02:24:04.650Z,99761.22
2023-04-29T02:24:45.558Z,99755.13
2023-04-29T02:25:25.852Z,99755.81
2023-04-29T02:26:06.587Z,99743.22
2023-04-29T02:26:46.668Z,99756.81
2023-04-29T02:27:26.603Z,99736.09
2023-04-29T02:28:06.659Z,99764.44
2023-04-29T02:28:46.544Z,99755.44
2023-04-29T02:29:27.694Z,99753.75
2023-04-29T02:30:08.569Z,99749.34
2023-04-29T02:30:48.645Z,99740.16
2023-04-29T02:31:28.607Z,99761.22
2023-04-29T02:32:08.740Z,99751.22
2023-04-29T02:32:48.572Z,99734.03
2023-04-29T02:33:28.680Z,99726.91
2023-04-29T02:34:09.569Z,99750.34
2023-04-29T02:34:49.826Z,99754.41
2023-04-29T02:35:29.542Z,99765.31
2023-04-29T02:36:10.694Z,99760.38
2023-04-29T02:36:50.582Z,99756.63
2023-04-29T02:37:30.632Z,99756.63
2023-04-29T02:38:11.539Z,99754.44
2023-04-29T02:38:53.972Z,99764.59
2023-04-29T02:39:34.544Z,99758.16
2023-04-29T02:40:15.641Z,99756.13
2023-04-29T02:40:56.559Z,99762.91
2023-04-29T02:41:36.632Z,99756.13
2023-04-29T02:42:17.578Z,99745.56
2023-04-29T02:42:57.645Z,99756.78
2023-04-29T02:43:37.562Z,99746.59
2023-04-29T02:44:17.824Z,99755.59
2023-04-29T02:44:57.544Z,99761.88
2023-04-29T02:45:37.841Z,99748.28
2023-04-29T02:46:18.598Z,99749.31
2023-04-29T02:47:12.536Z,99754.06
2023-04-29T02:47:52.608Z,99743.56
2023-04-29T02:48:32.615Z,99751.88
2023-04-29T02:49:12.543Z,99753.75
2023-04-29T02:49:52.792Z,99758.50
2023-04-29T02:50:33.544Z,99742.53
2023-04-29T02:51:14.449Z,99737.28
2023-04-29T02:51:56.539Z,99750.69
2023-04-29T02:52:36.783Z,99747.97
2023-04-29T02:53:16.545Z,99731.47
2023-04-29T02:53:56.607Z,99728.59
2023-04-29T02:54:37.521Z,99738.44
2023-04-29T02:55:18.585Z,99736.91
2023-04-29T02:55:58.547Z,99745.94
2023-04-29T02:56:38.665Z,99742.03
2023-04-29T02:57:18.523Z,99742.53
2023-04-29T02:57:58.777Z,99728.59
2023-04-29T02:58:39.540Z,99735.41
2023-04-29T02:59:19.603Z,99744.56
2023-04-29T02:59:59.518Z,99734.91
2023-04-29T03:00:39.876Z,99745.94
2023-04-29T03:01:19.565Z,99743.22
2023-04-29T03:01:59.632Z,99748.97
2023-04-29T03:02:40.660Z,99740.50
2023-04-29T03:03:20.805Z,99742.19
2023-04-29T03:04:01.932Z,99742.19
2023-04-29T03:04:42.680Z,99730.63
2023-04-29T03:05:22.580Z,99748.31
2023-04-29T03:06:03.331Z,99746.09
2023-04-29T03:06:44.517Z,99754.78
2023-04-29T03:07:24.683Z,99729.63
2023-04-29T03:08:04.510Z,99727.25
2023-04-29T03:08:44.617Z,99726.75
2023-04-29T03:09:25.559Z,99742.38
2023-04-29T03:10:05.642Z,99733.03
2023-04-29T03:10:46.569Z,99738.63
2023-04-29T03:11:28.077Z,99745.59
2023-04-29T03:12:09.534Z,99732.34
2023-04-29T03:12:49.640Z,99744.06
2023-04-29T03:13:29.511Z,99739.66
2023-04-29T03:14:09.631Z,99737.09
2023-04-29T03:14:50.530Z,99751.03
2023-04-29T03:15:30.830Z,99722.81
2023-04-29T03:16:11.541Z,99721.78
2023-04-29T03:16:52.160Z,99728.41
2023-04-29T03:17:33.572Z,99739.81
2023-04-29T03:18:13.731Z,99747.28
2023-04-29T03:18:54.504Z,99746.94
2023-04-29T03:19:34.625Z,99746.63
2023-04-29T03:20:17.511Z,99741.53
2023-04-29T03:20:57.600Z,99746.44
2023-04-29T03:21:37.528Z,99748.31
2023-04-29T03:22:17.598Z,99743.56
2023-04-29T03:22:58.501Z,99733.38
2023-04-29T03:23:41.476Z,99722.31
2023-04-29T03:24:22.505Z,99747.47
2023-04-29T03:25:02.649Z,99742.88
2023-04-29T03:25:43.549Z,99711.78
2023-04-29T03:26:24.491Z,99740.84
2023-04-29T03:27:06.482Z,99730.97
2023-04-29T03:27:47.204Z,99746.94
2023-04-29T03:28:27.502Z,99747.63
2023-04-29T03:29:07.581Z,99739.81
2023-04-29T03:29:47.507Z,99742.88
2023-04-29T03:30:27.569Z,99732.69
2023-04-29T03:31:08.610Z,99736.94
2023-04-29T03:31:48.641Z,99723.53
2023-04-29T03:32:28.532Z,99730.31
2023-04-29T03:33:08.615Z,99729.97
2023-04-29T03:33:48.491Z,99733.72
2023-04-29T03:34:28.578Z,99743.91
2023-04-29T03:35:09.531Z,99737.78
2023-04-29T03:35:49.574Z,99730.66
2023-04-29T03:36:29.503Z,99719.09
2023-04-29T03:37:09.624Z,99730.81
2023-04-29T03:37:50.474Z,99736.09
2023-04-29T03:38:30.593Z,99728.28
2023-04-29T03:39:11.470Z,99744.56
2023-04-29T03:39:51.681Z,99741.69
2023-04-29T03:40:31.477Z,99740.34
2023-04-29T03:41:12.624Z,99729.97
2023-04-29T03:41:54.507Z,99729.94
2023-04-29T03:42:34.574Z,99741.84
2023-04-29T03:43:15.483Z,99732.34
2023-04-29T03:44:00.520Z,99743.72
2023-04-29T03:44:41.525Z,99739.13
2023-04-29T03:45:21.639Z,99728.59
2023-04-29T03:46:01.511Z,99736.75
2023-04-29T03:46:41.685Z,99727.06
2023-04-29T03:47:22.517Z,99735.06
2023-04-29T03:48:03.481Z,99731.66
2023-04-29T03:48:44.515Z,99735.38
2023-04-29T03:49:24.573Z,99728.25
2023-04-29T03:50:04.500Z,99739.81
2023-04-29T03:50:44.634Z,99740.84
2023-04-29T03:51:25.466Z,99734.88
2023-04-29T03:52:06.381Z,99733.72
2023-04-29T03:52:47.498Z,99735.06
2023-04-29T03:53:27.558Z,99736.25
2023-04-29T03:54:08.496Z,99726.91
2023-04-29T03:54:48.661Z,99742.22
2023-04-29T03:55:29.471Z,99729.44
2023-04-29T03:56:09.565Z,99734.06
2023-04-29T03:56:50.478Z,99730.31
2023-04-29T03:57:30.650Z,99740.84
2023-04-29T03:58:11.547Z,99741.19
2023-04-29T03:58:51.545Z,99731.50
2023-04-29T03:59:32.472Z,99723.34
2023-04-29T04:00:13.550Z,99730.97
2023-04-29T04:00:53.468Z,99723.84
2023-04-29T04:01:33.659Z,99729.28
2023-04-29T04:03:15.609Z,99736.09
2023-04-29T04:03:49.733Z,99730.47
2023-04-29T04:04:36.608Z,99734.03
2023-04-29T04:05:11.010Z,99738.13
2023-04-29T04:05:58.464Z,99743.91
2023-04-29T04:06:32.568Z,99719.78
2023-04-29T04:07:19.495Z,99732.69
2023-04-29T04:07:53.595Z,99719.78
2023-04-29T04:08:40.543Z,99722.16
2023-04-29T04:09:14.536Z,99739.81
2023-04-29T04:10:01.464Z,99714.69
2023-04-29T04:10:35.602Z,99740.31
2023-04-29T04:11:22.460Z,99735.06
2023-04-29T04:11:56.660Z,99731.34
2023-04-29T04:12:44.243Z,99740.84
2023-04-29T04:13:18.598Z,99727.75
2023-04-29T04:14:05.486Z,99732.00
2023-04-29T04:14:40.541Z,99710.94
2023-04-29T04:15:29.452Z,99734.03
2023-04-29T04:16:03.655Z,99734.06
2023-04-29T04:16:50.449Z,99734.72
2023-04-29T04:17:24.568Z,99718.75
2023-04-29T04:18:11.498Z,99716.03
2023-04-29T04:18:45.692Z,99724.72
2023-04-29T04:19:26.502Z,99728.28
2023-04-29T04:20:06.551Z,99725.19
2023-04-29T04:20:46.540Z,99714.00
2023-04-29T04:21:27.549Z,99723.84
2023-04-29T04:22:12.862Z,99726.91
2023-04-29T04:22:54.869Z,99704.44
2023-04-29T04:23:35.460Z,99728.25
2023-04-29T04:24:15.939Z,99712.63
2023-04-29T04:24:55.465Z,99729.25
2023-04-29T04:25:35.591Z,99709.41
2023-04-29T04:26:15.441Z,99720.59
2023-04-29T04:26:55.543Z,99728.25
2023-04-29T04:27:36.501Z,99712.91
2023-04-29T04:28:16.517Z,99719.75
2023-04-29T04:28:56.616Z,99707.66
2023-04-29T04:29:39.548Z,99723.16
2023-04-29T04:30:25.483Z,99711.78
2023-04-29T04:31:05.656Z,99714.50
2023-04-29T04:31:47.263Z,99718.75
2023-04-29T04:32:29.578Z,99708.72
2023-04-29T04:33:10.677Z,99717.22
2023-04-29T04:34:06.658Z,99707.88
2023-04-29T04:35:00.479Z,99710.78
2023-04-29T04:35:47.443Z,99714.34
2023-04-29T04:36:21.518Z,99695.31
2023-04-29T04:37:08.446Z,99712.63
2023-04-29T04:37:42.507Z,99699.75
2023-04-29T04:38:31.438Z,99703.31
2023-04-29T04:39:11.638Z,99709.75
2023-04-29T04:39:53.727Z,99715.69
2023-04-29T04:40:35.510Z,99711.28
2023-04-29T04:41:26.421Z,99706.88
2023-04-29T04:42:06.813Z,99712.31
2023-04-29T04:42:46.429Z,99709.59
2023-04-29T04:43:31.087Z,99712.66
2023-04-29T04:44:12.429Z,99710.78
2023-04-29T04:45:01.309Z,99719.91
2023-04-29T04:45:41.439Z,99718.06
2023-04-29T04:46:31.545Z,99721.13
2023-04-29T04:47:09.192Z,99723.19
2023-04-29T04:47:59.474Z,99715.19
2023-04-29T04:48:33.390Z,99713.16
2023-04-29T04:49:20.426Z,99703.78
2023-04-29T04:49:54.731Z,99711.94
2023-04-29T04:50:43.462Z,99720.44
2023-04-29T04:51:17.145Z,99718.41
2023-04-29T04:51:58.442Z,99717.91
2023-04-29T04:52:32.637Z,99714.84
2023-04-29T04:53:12.384Z,99714.16
2023-04-29T04:53:52.436Z,99716.03
2023-04-29T04:54:29.510Z,99693.72
2023-04-29T04:55:03.313Z,99724.88
2023-04-29T04:55:44.438Z,99705.78
2023-04-29T04:56:18.533Z,99705.78
2023-04-29T04:56:52.277Z,99704.28
2023-04-29T04:57:33.439Z,99726.56
2023-04-29T04:58:07.499Z,99711.91
2023-04-29T04:58:41.136Z,99720.59
2023-04-29T04:59:22.507Z,99714.16
2023-04-29T04:59:56.602Z,99708.56
2023-04-29T05:00:30.145Z,99703.44
2023-04-29T05:01:10.476Z,99719.91
2023-04-29T05:01:44.684Z,99716.03
2023-04-29T05:02:18.425Z,99727.69
2023-04-29T05:02:59.584Z,99694.41
2023-04-29T05:03:33.940Z,99713.09
2023-04-29T05:04:08.295Z,99720.03
2023-04-29T05:04:52.400Z,99726.00
2023-04-29T05:05:28.525Z,99725.81
2023-04-29T05:06:02.229Z,99694.22
2023-04-29T05:06:46.419Z,99732.44
2023-04-29T05:07:21.590Z,99729.06
2023-04-29T05:07:56.987Z,99717.00
2023-04-29T05:08:38.629Z,99718.06
2023-04-29T05:09:12.681Z,99710.94
2023-04-29T05:09:49.301Z,99716.50
2023-04-29T05:10:33.598Z,99708.84
2023-04-29T05:11:07.492Z,99717.88
2023-04-29T05:11:41.912Z,99726.22
2023-04-29T05:12:22.412Z,99725.22
2023-04-29T05:12:56.510Z,99706.13
2023-04-29T05:13:30.130Z,99702.41
2023-04-29T05:14:11.498Z,99726.22
2023-04-29T05:14:45.541Z,99706.16
2023-04-29T05:15:19.250Z,99715.38
2023-04-29T05:15:59.403Z,99706.66
2023-04-29T05:16:36.678Z,99728.41
2023-04-29T05:17:11.255Z,99724.19
2023-04-29T05:17:52.412Z,99694.06
2023-04-29T05:18:26.495Z,99723.84
2023-04-29T05:19:00.269Z,99715.53
2023-04-29T05:19:40.418Z,99714.34
2023-04-29T05:20:15.635Z,99719.78
2023-04-29T05:20:49.177Z,99714.34
2023-04-29T05:21:30.482Z,99714.00
2023-04-29T05:22:04.554Z,99717.75
2023-04-29T05:22:38.169Z,99699.06
2023-04-29T05:23:18.396Z,99717.22
2023-04-29T05:23:52.482Z,99709.94
2023-04-29T05:24:26.295Z,99715.34
2023-04-29T05:25:09.875Z,99719.06
2023-04-29T05:25:43.753Z,99711.88
2023-04-29T05:26:17.194Z,99710.72
2023-04-29T05:26:58.392Z,99718.06
2023-04-29T05:27:32.465Z,99701.75
2023-04-29T05:28:06.196Z,99715.38
2023-04-29T05:28:47.380Z,99681.66
2023-04-29T05:29:21.513Z,99717.38
2023-04-29T05:29:55.641Z,99719.06
2023-04-29T05:30:35.430Z,99717.91
2023-04-29T05:31:09.651Z,99711.63
2023-04-29T05:31:43.399Z,99717.06
2023-04-29T05:32:24.414Z,99710.94
2023-04-29T05:32:58.779Z,99695.16
2023-04-29T05:33:33.224Z,99721.81
2023-04-29T05:34:23.823Z,99697.69
2023-04-29T05:35:00.946Z,99679.66
2023-04-29T05:35:35.144Z,99725.88
2023-04-29T05:36:18.875Z,99723.84
2023-04-29T05:36:52.541Z,99722.63
2023-04-29T05:37:31.299Z,99712.56
2023-04-29T05:38:14.437Z,99696.63
2023-04-29T05:38:54.541Z,99726.00
2023-04-29T05:39:34.377Z,99728.72
2023-04-29T05:40:15.695Z,99699.69
2023-04-29T05:40:56.427Z,99726.03
2023-04-29T05:41:36.495Z,99727.94
2023-04-29T05:42:12.485Z,99719.78
2023-04-29T05:42:47.049Z,99720.81
2023-04-29T05:43:27.379Z,99722.78
2023-04-29T05:44:07.448Z,99719.75
2023-04-29T05:44:48.588Z,99700.03
2023-04-29T05:45:31.887Z,99720.28
2023-04-29T05:46:12.451Z,99711.94
2023-04-29T05:46:53.547Z,99716.66
2023-04-29T05:47:27.555Z,99729.28
2023-04-29T05:48:14.425Z,99707.19
2023-04-29T05:48:48.448Z,99697.16
2023-04-29T05:49:37.428Z,99724.38
2023-04-29T05:50:14.479Z,99720.09
2023-04-29T05:51:02.350Z,99730.28
2023-04-29T05:51:45.038Z,99729.63
2023-04-29T05:52:26.655Z,99720.09
2023-04-29T05:53:08.728Z,99693.75
2023-04-29T05:53:48.421Z,99699.91
2023-04-29T05:54:28.497Z,99704.66
2023-04-29T05:55:08.401Z,99725.19
2023-04-29T05:55:51.581Z,99732.00
2023-04-29T05:56:32.379Z,99728.13
2023-04-29T05:57:12.499Z,99713.66
2023-04-29T05:57:53.399Z,99735.03
2023-04-29T05:58:33.526Z,99738.47
2023-04-29T05:59:14.995Z,99716.41
2023-04-29T05:59:57.644Z,99709.91
2023-04-29T06:00:38.373Z,99718.41
2023-04-29T06:01:25.748Z,99729.44
2023-04-29T06:02:06.351Z,99711.63
2023-04-29T06:02:58.190Z,99729.97
2023-04-29T06:03:41.500Z,99731.34
2023-04-29T06:04:25.280Z,99706.88
2023-04-29T06:05:06.727Z,99704.84
2023-04-29T06:05:47.796Z,99723.16
2023-04-29T06:06:29.513Z,99730.50
2023-04-29T06:07:09.554Z,99728.44
2023-04-29T06:07:50.370Z,99716.72
2023-04-29T06:08:34.747Z,99727.44
2023-04-29T06:09:28.032Z,99731.66
2023-04-29T06:10:11.098Z,99714.34
2023-04-29T06:10:53.419Z,99721.31
2023-04-29T06:11:38.408Z,99726.91
2023-04-29T06:12:18.360Z,99731.00
2023-04-29T06:12:58.485Z,99733.03
2023-04-29T06:13:42.378Z,99709.59
2023-04-29T06:14:22.597Z,99707.84
2023-04-29T06:15:02.491Z,99717.19
2023-04-29T06:15:42.531Z,99721.78
2023-04-29T06:16:23.432Z,99720.94
2023-04-29T06:17:03.881Z,99702.78
2023-04-29T06:17:44.539Z,99702.25
2023-04-29T06:18:24.558Z,99722.16
2023-04-29T06:19:05.392Z,99720.28
2023-04-29T06:19:45.452Z,99721.47
2023-04-29T06:20:26.435Z,99709.91
2023-04-29T06:21:06.524Z,99726.03
2023-04-29T06:21:48.343Z,99716.50
2023-04-29T06:22:29.663Z,99727.38
2023-04-29T06:23:09.356Z,99727.06
2023-04-29T06:23:50.798Z,99728.56
2023-04-29T06:24:30.346Z,99727.25
2023-04-29T06:25:17.435Z,99723.16
2023-04-29T06:25:58.391Z,99725.22
2023-04-29T06:26:38.465Z,99726.38
2023-04-29T06:27:18.385Z,99723.84
2023-04-29T06:27:58.647Z,99734.38
2023-04-29T06:28:40.430Z,99719.06
2023-04-29T06:29:20.435Z,99721.31
2023-04-29T06:30:01.337Z,99725.53
2023-04-29T06:30:41.899Z,99711.59
2023-04-29T06:31:23.274Z,99723.50
2023-04-29T06:32:06.559Z,99718.44
2023-04-29T06:32:47.375Z,99716.38
2023-04-29T06:33:30.336Z,99728.44
2023-04-29T06:34:11.429Z,99719.06
2023-04-29T06:34:51.468Z,99723.81
2023-04-29T06:35:31.363Z,99723.66
2023-04-29T06:36:12.433Z,99719.09
2023-04-29T06:36:52.367Z,99720.41
2023-04-29T06:37:32.464Z,99706.00
2023-04-29T06:38:15.372Z,99714.97
2023-04-29T06:38:58.422Z,99717.38
2023-04-29T06:39:38.411Z,99723.50
2023-04-29T06:40:19.414Z,99696.97
2023-04-29T06:40:59.391Z,99715.16
2023-04-29T06:41:40.907Z,99713.44
2023-04-29T06:42:22.337Z,99707.84
2023-04-29T06:43:03.151Z,99726.72
2023-04-29T06:43:43.388Z,99713.97
2023-04-29T06:44:23.426Z,99720.75
2023-04-29T06:45:04.330Z,99715.63
2023-04-29T06:45:44.721Z,99713.75
2023-04-29T06:46:26.551Z,99712.44
2023-04-29T06:47:08.451Z,99716.00
2023-04-29T06:47:48.430Z,99718.03
2023-04-29T06:48:29.660Z,99709.53
2023-04-29T06:49:18.991Z,99717.00
2023-04-29T06:50:04.957Z,99714.28
2023-04-29T06:50:53.395Z,99670.78
2023-04-29T06:51:36.994Z,99704.38
2023-04-29T06:52:19.400Z,99714.25
2023-04-29T06:53:02.380Z,99711.56
2023-04-29T06:53:36.390Z,99710.34
2023-04-29T06:54:23.399Z,99718.97
2023-04-29T06:54:57.487Z,99706.78
2023-04-29T06:55:44.396Z,99706.09
2023-04-29T06:56:18.549Z,99708.09
2023-04-29T06:57:05.830Z,99690.19
2023-04-29T06:57:41.500Z,99698.13
2023-04-29T06:58:25.415Z,99700.31
2023-04-29T06:59:07.832Z,99673.81
2023-04-29T06:59:55.332Z,99685.72
2023-04-29T07:00:35.815Z,99709.50
2023-04-29T07:01:17.464Z,99711.03
2023-04-29T07:01:58.646Z,99704.06
2023-04-29T07:02:41.389Z,99677.56
2023-04-29T07:03:31.525Z,99709.50
2023-04-29T07:04:29.622Z,99706.25
2023-04-29T07:05:23.579Z,99696.75
2023-04-29T07:06:19.343Z,99697.91
2023-04-29T07:07:20.383Z,99661.91
2023-04-29T07:10:23.476Z,99716.22
2023-04-29T07:11:17.408Z,99691.63
2023-04-29T07:12:16.303Z,99681.94
2023-04-29T07:13:10.329Z,99705.34
2023-04-29T07:14:06.330Z,99708.44
2023-04-29T07:14:47.330Z,99687.88
2023-04-29T07:15:27.398Z,99703.66
2023-04-29T07:16:07.316Z,99704.13
2023-04-29T07:16:47.416Z,99709.75
2023-04-29T07:17:28.328Z,99704.50
2023-04-29T07:18:12.052Z,99701.41
2023-04-29T07:18:52.304Z,99709.84
2023-04-29T07:19:32.493Z,99707.81
2023-04-29T07:20:14.368Z,99703.72
2023-04-29T07:20:55.763Z,99685.41
2023-04-29T07:21:37.281Z,99707.94
2023-04-29T07:22:17.365Z,99709.63
2023-04-29T07:22:57.362Z,99704.56
2023-04-29T07:23:37.391Z,99710.00
2023-04-29T07:24:17.301Z,99703.16
2023-04-29T07:25:00.522Z,99700.94
2023-04-29T07:25:41.308Z,99699.38
2023-04-29T07:26:23.442Z,99704.97
2023-04-29T07:27:04.370Z,99710.19
2023-04-29T07:27:44.372Z,99689.84
2023-04-29T07:28:25.309Z,99710.38
2023-04-29T07:29:05.464Z,99707.41
2023-04-29T07:29:46.327Z,99709.72
2023-04-29T07:30:26.403Z,99706.44
2023-04-29T07:31:06.389Z,99707.09
2023-04-29T07:31:46.422Z,99710.84
2023-04-29T07:32:26.316Z,99689.59
2023-04-29T07:33:06.639Z,99709.13
2023-04-29T07:33:47.277Z,99699.06
2023-04-29T07:34:41.273Z,99714.00
2023-04-29T07:35:35.290Z,99692.34
2023-04-29T07:36:22.314Z,99693.69
2023-04-29T07:36:57.294Z,99692.31
2023-04-29T07:37:44.295Z,99710.84
2023-04-29T07:38:18.414Z,99691.75
2023-04-29T07:39:06.263Z,99693.47
2023-04-29T07:39:42.522Z,99710.91
2023-04-29T07:40:30.475Z,99692.47
2023-04-29T07:41:07.416Z,99673.47
2023-04-29T07:41:48.291Z,99693.13
2023-04-29T07:42:28.428Z,99706.31
2023-04-29T07:43:11.365Z,99706.59
2023-04-29T07:43:51.439Z,99709.41
2023-04-29T07:44:32.270Z,99693.78
2023-04-29T07:45:14.013Z,99694.25
2023-04-29T07:45:55.302Z,99700.56
2023-04-29T07:46:35.410Z,99702.91
2023-04-29T07:47:15.302Z,99700.56
2023-04-29T07:47:55.490Z,99704.16
2023-04-29T07:48:35.291Z,99690.78
2023-04-29T07:49:15.420Z,99708.47
2023-04-29T07:49:56.285Z,99706.41
2023-04-29T07:50:36.830Z,99708.47
2023-04-29T07:51:23.267Z,99695.59
2023-04-29T07:52:03.900Z,99694.53
2023-04-29T07:52:45.278Z,99705.94
2023-04-29T07:53:25.385Z,99700.94
2023-04-29T07:54:06.255Z,99704.59
2023-04-29T07:54:46.344Z,99706.59
2023-04-29T07:55:26.269Z,99699.09
2023-04-29T07:56:07.364Z,99702.09
2023-04-29T07:56:47.357Z,99697.84
2023-04-29T07:57:27.411Z,99686.44
2023-04-29T07:58:08.272Z,99700.19
2023-04-29T07:58:48.805Z,99702.91
2023-04-29T07:59:30.253Z,99674.31
2023-04-29T08:00:11.610Z,99677.63
2023-04-29T08:00:51.254Z,99694.66
2023-04-29T08:01:31.519Z,99686.09
2023-04-29T08:02:12.296Z,99682.59
2023-04-29T08:02:52.504Z,99692.53
2023-04-29T08:03:34.539Z,99663.31
2023-04-29T08:04:15.581Z,99696.47
2023-04-29T08:04:57.595Z,99701.16
2023-04-29T08:05:38.419Z,99689.25
2023-04-29T08:06:19.345Z,99692.91
2023-04-29T08:06:59.391Z,99684.44
2023-04-29T08:07:40.278Z,99696.97
2023-04-29T08:08:20.353Z,99681.59
2023-04-29T08:09:03.223Z,99698.25
2023-04-29T08:09:43.327Z,99682.91
2023-04-29T08:10:25.249Z,99692.13
2023-04-29T08:11:06.748Z,99685.84
2023-04-29T08:11:47.237Z,99692.69
2023-04-29T08:12:27.464Z,99688.44
2023-04-29T08:13:07.230Z,99694.00
2023-04-29T08:13:47.766Z,99677.06
2023-04-29T08:14:28.266Z,99685.56
2023-04-29T08:15:09.772Z,99695.97
2023-04-29T08:15:50.310Z,99698.31
2023-04-29T08:16:30.881Z,99689.47
2023-04-29T08:17:12.244Z,99688.22